sensor_id;sensor_type;location;lat;lon;timestamp;P1;durP1;ratioP1;P2;durP2;ratioP2
22849;SDS011;11591;44.792;10.358;2023-04-25T00:01:31;2.30;;;1.13;;
22849;SDS011;11591;44.792;10.358;2023-04-25T00:04:01;2.95;;;0.90;;
22849;SDS011;11591;44.792;10.358;2023-04-25T00:06:28;2.70;;;1.10;;
22849;SDS011;11591;44.792;10.358;2023-04-25T00:08:56;1.23;;;0.93;;
22849;SDS011;11591;44.792;10.358;2023-04-25T00:11:23;2.85;;;0.77;;
22849;SDS011;11591;44.792;10.358;2023-04-25T00:13:49;2.95;;;1.02;;
22849;SDS011;11591;44.792;10.358;2023-04-25T00:16:19;1.20;;;1.00;;
22849;SDS011;11591;44.792;10.358;2023-04-25T00:18:45;3.25;;;1.27;;
22849;SDS011;11591;44.792;10.358;2023-04-25T00:21:16;4.57;;;1.10;;
22849;SDS011;11591;44.792;10.358;2023-04-25T00:23:43;3.13;;;1.23;;
22849;SDS011;11591;44.792;10.358;2023-04-25T00:26:10;5.50;;;1.02;;
22849;SDS011;11591;44.792;10.358;2023-04-25T00:28:36;2.30;;;0.93;;
22849;SDS011;11591;44.792;10.358;2023-04-25T00:31:03;2.33;;;1.08;;
22849;SDS011;11591;44.792;10.358;2023-04-25T00:33:29;1.95;;;1.25;;
22849;SDS011;11591;44.792;10.358;2023-04-25T00:35:55;2.33;;;1.17;;
22849;SDS011;11591;44.792;10.358;2023-04-25T00:38:21;2.03;;;1.13;;
22849;SDS011;11591;44.792;10.358;2023-04-25T00:40:47;6.22;;;1.83;;
22849;SDS011;11591;44.792;10.358;2023-04-25T00:43:13;2.78;;;1.77;;
22849;SDS011;11591;44.792;10.358;2023-04-25T00:45:39;3.00;;;1.60;;
22849;SDS011;11591;44.792;10.358;2023-04-25T00:48:05;2.95;;;1.55;;
22849;SDS011;11591;44.792;10.358;2023-04-25T00:50:34;4.63;;;1.52;;
22849;SDS011;11591;44.792;10.358;2023-04-25T00:53:01;1.95;;;1.38;;
22849;SDS011;11591;44.792;10.358;2023-04-25T00:55:28;4.78;;;1.60;;
22849;SDS011;11591;44.792;10.358;2023-04-25T00:57:56;2.20;;;1.40;;
22849;SDS011;11591;44.792;10.358;2023-04-25T01:00:22;4.93;;;1.30;;
22849;SDS011;11591;44.792;10.358;2023-04-25T01:02:48;2.80;;;1.00;;
22849;SDS011;11591;44.792;10.358;2023-04-25T01:05:15;2.28;;;1.10;;
22849;SDS011;11591;44.792;10.358;2023-04-25T01:07:41;5.40;;;1.20;;
22849;SDS011;11591;44.792;10.358;2023-04-25T01:10:07;2.55;;;1.27;;
22849;SDS011;11591;44.792;10.358;2023-04-25T01:12:33;3.65;;;1.30;;
22849;SDS011;11591;44.792;10.358;2023-04-25T01:14:59;4.32;;;1.60;;
22849;SDS011;11591;44.792;10.358;2023-04-25T01:17:25;1.77;;;1.10;;
22849;SDS011;11591;44.792;10.358;2023-04-25T01:19:52;4.13;;;1.50;;
22849;SDS011;11591;44.792;10.358;2023-04-25T01:22:18;4.03;;;1.40;;
22849;SDS011;11591;44.792;10.358;2023-04-25T01:24:45;2.22;;;1.30;;
22849;SDS011;11591;44.792;10.358;2023-04-25T01:27:11;3.53;;;1.35;;
22849;SDS011;11591;44.792;10.358;2023-04-25T01:29:37;2.92;;;1.33;;
22849;SDS011;11591;44.792;10.358;2023-04-25T01:32:03;1.83;;;1.08;;
22849;SDS011;11591;44.792;10.358;2023-04-25T01:34:30;1.95;;;1.38;;
22849;SDS011;11591;44.792;10.358;2023-04-25T01:36:58;5.38;;;1.30;;
22849;SDS011;11591;44.792;10.358;2023-04-25T01:39:27;3.35;;;1.38;;
22849;SDS011;11591;44.792;10.358;2023-04-25T01:41:53;2.67;;;1.15;;
22849;SDS011;11591;44.792;10.358;2023-04-25T01:44:19;3.40;;;1.65;;
22849;SDS011;11591;44.792;10.358;2023-04-25T01:46:45;2.58;;;1.40;;
22849;SDS011;11591;44.792;10.358;2023-04-25T01:49:11;2.28;;;1.23;;
22849;SDS011;11591;44.792;10.358;2023-04-25T01:51:37;2.72;;;1.50;;
22849;SDS011;11591;44.792;10.358;2023-04-25T01:54:03;6.22;;;1.70;;
22849;SDS011;11591;44.792;10.358;2023-04-25T01:56:29;4.47;;;1.40;;
22849;SDS011;11591;44.792;10.358;2023-04-25T01:58:56;2.92;;;1.42;;
22849;SDS011;11591;44.792;10.358;2023-04-25T02:01:45;3.15;;;1.52;;
22849;SDS011;11591;44.792;10.358;2023-04-25T02:04:20;2.67;;;1.50;;
22849;SDS011;11591;44.792;10.358;2023-04-25T02:06:46;2.67;;;1.42;;
22849;SDS011;11591;44.792;10.358;2023-04-25T02:09:11;6.47;;;1.90;;
22849;SDS011;11591;44.792;10.358;2023-04-25T02:11:43;7.03;;;1.85;;
22849;SDS011;11591;44.792;10.358;2023-04-25T02:14:32;2.08;;;1.52;;
22849;SDS011;11591;44.792;10.358;2023-04-25T02:17:17;3.10;;;1.60;;
22849;SDS011;11591;44.792;10.358;2023-04-25T02:19:44;3.55;;;1.60;;
22849;SDS011;11591;44.792;10.358;2023-04-25T02:22:11;3.15;;;1.80;;
22849;SDS011;11591;44.792;10.358;2023-04-25T02:24:38;3.60;;;1.73;;
22849;SDS011;11591;44.792;10.358;2023-04-25T02:27:04;3.83;;;1.60;;
22849;SDS011;11591;44.792;10.358;2023-04-25T02:29:30;4.57;;;1.70;;
22849;SDS011;11591;44.792;10.358;2023-04-25T02:31:56;6.97;;;1.80;;
22849;SDS011;11591;44.792;10.358;2023-04-25T02:34:22;5.10;;;1.77;;
22849;SDS011;11591;44.792;10.358;2023-04-25T02:36:48;3.47;;;1.90;;
22849;SDS011;11591;44.792;10.358;2023-04-25T02:39:17;5.03;;;1.60;;
22849;SDS011;11591;44.792;10.358;2023-04-25T02:41:43;4.45;;;2.05;;
22849;SDS011;11591;44.792;10.358;2023-04-25T02:44:08;2.65;;;1.83;;
22849;SDS011;11591;44.792;10.358;2023-04-25T02:46:36;3.63;;;1.90;;
22849;SDS011;11591;44.792;10.358;2023-04-25T02:49:02;2.70;;;1.52;;
22849;SDS011;11591;44.792;10.358;2023-04-25T02:51:29;2.28;;;1.48;;
22849;SDS011;11591;44.792;10.358;2023-04-25T02:53:55;3.53;;;1.92;;
22849;SDS011;11591;44.792;10.358;2023-04-25T02:56:21;3.08;;;1.70;;
22849;SDS011;11591;44.792;10.358;2023-04-25T02:58:47;5.25;;;1.83;;
22849;SDS011;11591;44.792;10.358;2023-04-25T03:01:13;4.68;;;1.90;;
22849;SDS011;11591;44.792;10.358;2023-04-25T03:03:38;2.67;;;1.92;;
22849;SDS011;11591;44.792;10.358;2023-04-25T03:06:04;5.63;;;2.00;;
22849;SDS011;11591;44.792;10.358;2023-04-25T03:08:32;4.72;;;2.17;;
22849;SDS011;11591;44.792;10.358;2023-04-25T03:11:00;4.30;;;2.20;;
22849;SDS011;11591;44.792;10.358;2023-04-25T03:13:26;7.43;;;2.38;;
22849;SDS011;11591;44.792;10.358;2023-04-25T03:15:55;3.53;;;1.95;;
22849;SDS011;11591;44.792;10.358;2023-04-25T03:18:20;4.25;;;2.22;;
22849;SDS011;11591;44.792;10.358;2023-04-25T03:20:46;4.72;;;2.28;;
22849;SDS011;11591;44.792;10.358;2023-04-25T03:23:12;5.68;;;2.17;;
22849;SDS011;11591;44.792;10.358;2023-04-25T03:25:40;4.57;;;2.25;;
22849;SDS011;11591;44.792;10.358;2023-04-25T03:28:06;3.45;;;2.00;;
22849;SDS011;11591;44.792;10.358;2023-04-25T03:30:32;2.70;;;1.88;;
22849;SDS011;11591;44.792;10.358;2023-04-25T03:32:58;5.90;;;2.20;;
22849;SDS011;11591;44.792;10.358;2023-04-25T03:35:24;4.60;;;2.63;;
22849;SDS011;11591;44.792;10.358;2023-04-25T03:37:50;3.78;;;2.25;;
22849;SDS011;11591;44.792;10.358;2023-04-25T03:40:22;3.63;;;2.17;;
22849;SDS011;11591;44.792;10.358;2023-04-25T03:43:11;6.20;;;2.60;;
22849;SDS011;11591;44.792;10.358;2023-04-25T03:45:42;4.50;;;2.20;;
22849;SDS011;11591;44.792;10.358;2023-04-25T03:48:08;5.35;;;2.33;;
22849;SDS011;11591;44.792;10.358;2023-04-25T03:50:34;3.60;;;2.40;;
22849;SDS011;11591;44.792;10.358;2023-04-25T03:52:59;8.38;;;2.60;;
22849;SDS011;11591;44.792;10.358;2023-04-25T03:55:28;5.50;;;2.10;;
22849;SDS011;11591;44.792;10.358;2023-04-25T03:57:55;6.03;;;2.60;;
22849;SDS011;11591;44.792;10.358;2023-04-25T04:00:21;4.60;;;2.90;;
22849;SDS011;11591;44.792;10.358;2023-04-25T04:02:50;8.13;;;2.70;;
22849;SDS011;11591;44.792;10.358;2023-04-25T04:05:17;5.97;;;2.60;;
22849;SDS011;11591;44.792;10.358;2023-04-25T04:07:49;6.13;;;2.75;;
22849;SDS011;11591;44.792;10.358;2023-04-25T04:10:16;9.35;;;2.95;;
22849;SDS011;11591;44.792;10.358;2023-04-25T04:12:43;4.70;;;2.55;;
22849;SDS011;11591;44.792;10.358;2023-04-25T04:15:10;4.75;;;2.70;;
22849;SDS011;11591;44.792;10.358;2023-04-25T04:17:36;4.13;;;2.63;;
22849;SDS011;11591;44.792;10.358;2023-04-25T04:20:02;8.15;;;2.70;;
22849;SDS011;11591;44.792;10.358;2023-04-25T04:22:30;4.68;;;2.53;;
22849;SDS011;11591;44.792;10.358;2023-04-25T04:25:00;6.38;;;2.78;;
22849;SDS011;11591;44.792;10.358;2023-04-25T04:27:48;6.85;;;3.00;;
22849;SDS011;11591;44.792;10.358;2023-04-25T04:30:31;4.07;;;2.80;;
22849;SDS011;11591;44.792;10.358;2023-04-25T04:33:02;4.20;;;2.70;;
22849;SDS011;11591;44.792;10.358;2023-04-25T04:35:29;4.88;;;2.90;;
22849;SDS011;11591;44.792;10.358;2023-04-25T04:37:55;5.63;;;2.58;;
22849;SDS011;11591;44.792;10.358;2023-04-25T04:40:23;4.25;;;2.78;;
22849;SDS011;11591;44.792;10.358;2023-04-25T04:43:03;7.53;;;2.85;;
22849;SDS011;11591;44.792;10.358;2023-04-25T04:45:58;3.83;;;2.78;;
22849;SDS011;11591;44.792;10.358;2023-04-25T04:48:40;8.40;;;4.57;;
22849;SDS011;11591;44.792;10.358;2023-04-25T04:51:41;6.28;;;3.38;;
22849;SDS011;11591;44.792;10.358;2023-04-25T04:54:29;10.20;;;3.75;;
22849;SDS011;11591;44.792;10.358;2023-04-25T04:57:27;7.57;;;4.60;;
22849;SDS011;11591;44.792;10.358;2023-04-25T05:00:16;9.38;;;3.15;;
22849;SDS011;11591;44.792;10.358;2023-04-25T05:02:54;7.75;;;3.33;;
22849;SDS011;11591;44.792;10.358;2023-04-25T05:05:50;5.45;;;3.85;;
22849;SDS011;11591;44.792;10.358;2023-04-25T05:08:36;7.28;;;3.40;;
22849;SDS011;11591;44.792;10.358;2023-04-25T05:11:22;4.70;;;3.10;;
22849;SDS011;11591;44.792;10.358;2023-04-25T05:14:12;7.15;;;3.40;;
22849;SDS011;11591;44.792;10.358;2023-04-25T05:16:40;7.07;;;3.13;;
22849;SDS011;11591;44.792;10.358;2023-04-25T05:19:34;6.30;;;3.25;;
22849;SDS011;11591;44.792;10.358;2023-04-25T05:22:13;4.75;;;3.20;;
22849;SDS011;11591;44.792;10.358;2023-04-25T05:24:53;5.18;;;3.28;;
22849;SDS011;11591;44.792;10.358;2023-04-25T05:27:57;6.55;;;3.03;;
22849;SDS011;11591;44.792;10.358;2023-04-25T05:30:38;5.45;;;3.20;;
22849;SDS011;11591;44.792;10.358;2023-04-25T05:33:15;8.27;;;3.30;;
22849;SDS011;11591;44.792;10.358;2023-04-25T05:35:43;12.75;;;3.20;;
22849;SDS011;11591;44.792;10.358;2023-04-25T05:38:10;12.43;;;3.63;;
22849;SDS011;11591;44.792;10.358;2023-04-25T05:40:56;6.82;;;3.25;;
22849;SDS011;11591;44.792;10.358;2023-04-25T05:43:51;9.32;;;3.45;;
22849;SDS011;11591;44.792;10.358;2023-04-25T05:46:32;7.68;;;3.38;;
22849;SDS011;11591;44.792;10.358;2023-04-25T05:49:26;6.03;;;3.33;;
22849;SDS011;11591;44.792;10.358;2023-04-25T05:52:12;8.18;;;3.35;;
22849;SDS011;11591;44.792;10.358;2023-04-25T05:54:46;4.32;;;3.17;;
22849;SDS011;11591;44.792;10.358;2023-04-25T05:57:19;4.63;;;3.08;;
22849;SDS011;11591;44.792;10.358;2023-04-25T05:59:46;10.85;;;3.92;;
22849;SDS011;11591;44.792;10.358;2023-04-25T06:02:13;8.43;;;3.45;;
22849;SDS011;11591;44.792;10.358;2023-04-25T06:04:41;8.70;;;3.30;;
22849;SDS011;11591;44.792;10.358;2023-04-25T06:07:06;7.93;;;3.03;;
22849;SDS011;11591;44.792;10.358;2023-04-25T06:09:34;8.18;;;3.50;;
22849;SDS011;11591;44.792;10.358;2023-04-25T06:12:00;5.32;;;3.55;;
22849;SDS011;11591;44.792;10.358;2023-04-25T06:14:27;5.57;;;3.58;;
22849;SDS011;11591;44.792;10.358;2023-04-25T06:16:53;8.85;;;3.65;;
22849;SDS011;11591;44.792;10.358;2023-04-25T06:19:19;9.45;;;3.67;;
22849;SDS011;11591;44.792;10.358;2023-04-25T06:21:44;8.70;;;3.70;;
22849;SDS011;11591;44.792;10.358;2023-04-25T06:24:10;12.30;;;4.05;;
22849;SDS011;11591;44.792;10.358;2023-04-25T06:26:36;11.95;;;3.53;;
22849;SDS011;11591;44.792;10.358;2023-04-25T06:29:02;6.55;;;3.45;;
22849;SDS011;11591;44.792;10.358;2023-04-25T06:31:28;5.70;;;3.60;;
22849;SDS011;11591;44.792;10.358;2023-04-25T06:33:58;9.10;;;4.15;;
22849;SDS011;11591;44.792;10.358;2023-04-25T06:36:26;5.72;;;3.17;;
22849;SDS011;11591;44.792;10.358;2023-04-25T06:38:57;10.35;;;3.75;;
22849;SDS011;11591;44.792;10.358;2023-04-25T06:41:25;7.70;;;3.72;;
22849;SDS011;11591;44.792;10.358;2023-04-25T06:43:51;9.80;;;4.13;;
22849;SDS011;11591;44.792;10.358;2023-04-25T06:46:29;7.57;;;3.45;;
22849;SDS011;11591;44.792;10.358;2023-04-25T06:48:57;9.80;;;3.63;;
22849;SDS011;11591;44.792;10.358;2023-04-25T06:51:23;8.35;;;3.45;;
22849;SDS011;11591;44.792;10.358;2023-04-25T06:53:52;7.47;;;3.35;;
22849;SDS011;11591;44.792;10.358;2023-04-25T06:56:26;5.70;;;3.40;;
22849;SDS011;11591;44.792;10.358;2023-04-25T06:59:06;7.35;;;3.00;;
22849;SDS011;11591;44.792;10.358;2023-04-25T07:01:34;4.80;;;2.97;;
22849;SDS011;11591;44.792;10.358;2023-04-25T07:04:08;5.97;;;3.28;;
22849;SDS011;11591;44.792;10.358;2023-04-25T07:06:39;7.88;;;2.85;;
22849;SDS011;11591;44.792;10.358;2023-04-25T07:09:08;6.82;;;3.17;;
22849;SDS011;11591;44.792;10.358;2023-04-25T07:11:39;6.57;;;3.45;;
22849;SDS011;11591;44.792;10.358;2023-04-25T07:14:04;6.30;;;3.65;;
22849;SDS011;11591;44.792;10.358;2023-04-25T07:16:30;6.22;;;3.28;;
22849;SDS011;11591;44.792;10.358;2023-04-25T07:18:58;7.68;;;3.53;;
22849;SDS011;11591;44.792;10.358;2023-04-25T07:21:25;11.07;;;3.80;;
22849;SDS011;11591;44.792;10.358;2023-04-25T07:23:52;7.45;;;3.65;;
22849;SDS011;11591;44.792;10.358;2023-04-25T07:26:23;7.57;;;3.95;;
22849;SDS011;11591;44.792;10.358;2023-04-25T07:29:15;9.90;;;4.05;;
22849;SDS011;11591;44.792;10.358;2023-04-25T07:31:40;7.32;;;4.13;;
22849;SDS011;11591;44.792;10.358;2023-04-25T07:34:10;7.82;;;3.90;;
22849;SDS011;11591;44.792;10.358;2023-04-25T07:36:37;17.05;;;6.30;;
22849;SDS011;11591;44.792;10.358;2023-04-25T07:39:05;7.75;;;4.53;;
22849;SDS011;11591;44.792;10.358;2023-04-25T07:41:32;10.48;;;4.75;;
22849;SDS011;11591;44.792;10.358;2023-04-25T07:43:58;11.48;;;6.30;;
22849;SDS011;11591;44.792;10.358;2023-04-25T07:46:24;8.48;;;4.78;;
22849;SDS011;11591;44.792;10.358;2023-04-25T07:48:53;9.02;;;5.45;;
22849;SDS011;11591;44.792;10.358;2023-04-25T07:51:19;7.80;;;4.38;;
22849;SDS011;11591;44.792;10.358;2023-04-25T07:53:49;8.32;;;4.10;;
22849;SDS011;11591;44.792;10.358;2023-04-25T07:56:15;6.35;;;3.83;;
22849;SDS011;11591;44.792;10.358;2023-04-25T07:58:44;6.22;;;3.40;;
22849;SDS011;11591;44.792;10.358;2023-04-25T08:01:13;3.58;;;1.80;;
22849;SDS011;11591;44.792;10.358;2023-04-25T08:03:47;3.60;;;1.75;;
22849;SDS011;11591;44.792;10.358;2023-04-25T08:06:31;1.98;;;1.02;;
22849;SDS011;11591;44.792;10.358;2023-04-25T08:09:11;1.13;;;0.70;;
22849;SDS011;11591;44.792;10.358;2023-04-25T08:11:41;1.00;;;0.60;;
22849;SDS011;11591;44.792;10.358;2023-04-25T08:14:10;2.05;;;0.68;;
22849;SDS011;11591;44.792;10.358;2023-04-25T08:16:38;1.80;;;0.50;;
22849;SDS011;11591;44.792;10.358;2023-04-25T08:19:05;0.60;;;0.50;;
22849;SDS011;11591;44.792;10.358;2023-04-25T08:21:31;0.77;;;0.50;;
22849;SDS011;11591;44.792;10.358;2023-04-25T08:24:02;0.40;;;0.30;;
22849;SDS011;11591;44.792;10.358;2023-04-25T08:26:32;0.43;;;0.40;;
22849;SDS011;11591;44.792;10.358;2023-04-25T08:29:01;1.33;;;0.50;;
22849;SDS011;11591;44.792;10.358;2023-04-25T08:31:27;1.30;;;0.45;;
22849;SDS011;11591;44.792;10.358;2023-04-25T08:33:59;1.48;;;0.50;;
22849;SDS011;11591;44.792;10.358;2023-04-25T08:36:40;1.33;;;0.60;;
22849;SDS011;11591;44.792;10.358;2023-04-25T08:39:18;0.75;;;0.60;;
22849;SDS011;11591;44.792;10.358;2023-04-25T08:42:05;1.25;;;0.30;;
22849;SDS011;11591;44.792;10.358;2023-04-25T08:44:36;0.63;;;0.40;;
22849;SDS011;11591;44.792;10.358;2023-04-25T08:47:03;1.10;;;0.57;;
22849;SDS011;11591;44.792;10.358;2023-04-25T08:49:34;1.95;;;0.30;;
22849;SDS011;11591;44.792;10.358;2023-04-25T08:52:02;2.72;;;0.47;;
22849;SDS011;11591;44.792;10.358;2023-04-25T08:54:31;1.40;;;0.45;;
22849;SDS011;11591;44.792;10.358;2023-04-25T08:57:02;1.70;;;0.30;;
22849;SDS011;11591;44.792;10.358;2023-04-25T08:59:29;0.88;;;0.30;;
22849;SDS011;11591;44.792;10.358;2023-04-25T09:01:57;0.50;;;0.32;;
22849;SDS011;11591;44.792;10.358;2023-04-25T09:04:23;2.50;;;0.45;;
22849;SDS011;11591;44.792;10.358;2023-04-25T09:06:49;0.70;;;0.50;;
22849;SDS011;11591;44.792;10.358;2023-04-25T09:09:16;4.03;;;0.47;;
22849;SDS011;11591;44.792;10.358;2023-04-25T09:11:43;3.05;;;0.65;;
22849;SDS011;11591;44.792;10.358;2023-04-25T09:14:19;2.38;;;0.40;;
22849;SDS011;11591;44.792;10.358;2023-04-25T09:19:51;2.92;;;0.60;;
22849;SDS011;11591;44.792;10.358;2023-04-25T09:22:26;2.40;;;0.30;;
22849;SDS011;11591;44.792;10.358;2023-04-25T09:24:52;2.08;;;0.40;;
22849;SDS011;11591;44.792;10.358;2023-04-25T09:27:21;1.70;;;0.30;;
22849;SDS011;11591;44.792;10.358;2023-04-25T09:29:56;1.65;;;0.32;;
22849;SDS011;11591;44.792;10.358;2023-04-25T09:32:24;0.30;;;0.22;;
22849;SDS011;11591;44.792;10.358;2023-04-25T09:34:53;5.50;;;3.25;;
22849;SDS011;11591;44.792;10.358;2023-04-25T09:40:10;1.55;;;0.90;;
22849;SDS011;11591;44.792;10.358;2023-04-25T09:43:00;5.07;;;1.05;;
22849;SDS011;11591;44.792;10.358;2023-04-25T09:45:26;0.90;;;0.50;;
22849;SDS011;11591;44.792;10.358;2023-04-25T09:47:57;2.58;;;0.68;;
22849;SDS011;11591;44.792;10.358;2023-04-25T09:50:33;3.63;;;0.38;;
22849;SDS011;11591;44.792;10.358;2023-04-25T09:53:07;0.32;;;0.32;;
22849;SDS011;11591;44.792;10.358;2023-04-25T09:55:51;0.70;;;0.45;;
22849;SDS011;11591;44.792;10.358;2023-04-25T09:58:17;3.53;;;0.40;;
22849;SDS011;11591;44.792;10.358;2023-04-25T10:00:44;2.83;;;0.50;;
22849;SDS011;11591;44.792;10.358;2023-04-25T10:03:22;0.43;;;0.43;;
22849;SDS011;11591;44.792;10.358;2023-04-25T10:06:14;1.38;;;0.40;;
22849;SDS011;11591;44.792;10.358;2023-04-25T10:08:44;0.88;;;0.55;;
22849;SDS011;11591;44.792;10.358;2023-04-25T10:11:15;1.45;;;1.02;;
22849;SDS011;11591;44.792;10.358;2023-04-25T10:13:42;1.13;;;0.70;;
22849;SDS011;11591;44.792;10.358;2023-04-25T10:16:09;7.35;;;4.18;;
22849;SDS011;11591;44.792;10.358;2023-04-25T10:18:35;1.77;;;1.15;;
22849;SDS011;11591;44.792;10.358;2023-04-25T10:21:03;1.50;;;0.70;;
22849;SDS011;11591;44.792;10.358;2023-04-25T10:23:32;1.58;;;0.98;;
22849;SDS011;11591;44.792;10.358;2023-04-25T10:25:59;1.60;;;0.95;;
22849;SDS011;11591;44.792;10.358;2023-04-25T10:28:26;2.65;;;0.90;;
22849;SDS011;11591;44.792;10.358;2023-04-25T10:30:59;1.30;;;0.73;;
22849;SDS011;11591;44.792;10.358;2023-04-25T10:33:29;1.05;;;0.77;;
22849;SDS011;11591;44.792;10.358;2023-04-25T10:36:12;2.28;;;0.90;;
22849;SDS011;11591;44.792;10.358;2023-04-25T10:38:40;1.10;;;0.77;;
22849;SDS011;11591;44.792;10.358;2023-04-25T10:41:08;3.10;;;1.17;;
22849;SDS011;11591;44.792;10.358;2023-04-25T10:46:17;4.22;;;1.40;;
22849;SDS011;11591;44.792;10.358;2023-04-25T10:48:48;1.95;;;1.30;;
22849;SDS011;11591;44.792;10.358;2023-04-25T10:53:45;9.63;;;4.80;;
22849;SDS011;11591;44.792;10.358;2023-04-25T10:58:45;3.25;;;1.80;;
22849;SDS011;11591;44.792;10.358;2023-04-25T11:01:15;3.47;;;1.55;;
22849;SDS011;11591;44.792;10.358;2023-04-25T11:03:44;3.80;;;1.55;;
22849;SDS011;11591;44.792;10.358;2023-04-25T11:06:18;3.20;;;1.40;;
22849;SDS011;11591;44.792;10.358;2023-04-25T11:08:49;6.63;;;1.58;;
22849;SDS011;11591;44.792;10.358;2023-04-25T11:11:16;3.50;;;1.50;;
22849;SDS011;11591;44.792;10.358;2023-04-25T11:13:43;3.88;;;1.60;;
22849;SDS011;11591;44.792;10.358;2023-04-25T11:16:10;1.83;;;1.35;;
22849;SDS011;11591;44.792;10.358;2023-04-25T11:18:36;2.75;;;1.45;;
22849;SDS011;11591;44.792;10.358;2023-04-25T11:21:03;2.80;;;1.77;;
22849;SDS011;11591;44.792;10.358;2023-04-25T11:23:29;8.05;;;5.05;;
22849;SDS011;11591;44.792;10.358;2023-04-25T11:25:55;3.35;;;2.35;;
22849;SDS011;11591;44.792;10.358;2023-04-25T11:28:23;10.05;;;4.35;;
22849;SDS011;11591;44.792;10.358;2023-04-25T11:30:49;5.03;;;2.95;;
22849;SDS011;11591;44.792;10.358;2023-04-25T11:33:18;7.82;;;4.35;;
22849;SDS011;11591;44.792;10.358;2023-04-25T11:35:49;5.68;;;3.72;;
22849;SDS011;11591;44.792;10.358;2023-04-25T11:38:15;11.88;;;5.70;;
22849;SDS011;11591;44.792;10.358;2023-04-25T11:40:44;6.55;;;3.78;;
22849;SDS011;11591;44.792;10.358;2023-04-25T11:43:15;10.50;;;5.18;;
22849;SDS011;11591;44.792;10.358;2023-04-25T11:45:41;22.15;;;12.82;;
22849;SDS011;11591;44.792;10.358;2023-04-25T11:48:11;3.95;;;2.90;;
22849;SDS011;11591;44.792;10.358;2023-04-25T11:50:41;5.47;;;3.17;;
22849;SDS011;11591;44.792;10.358;2023-04-25T11:53:06;5.93;;;2.08;;
22849;SDS011;11591;44.792;10.358;2023-04-25T11:55:33;3.03;;;1.70;;
22849;SDS011;11591;44.792;10.358;2023-04-25T11:58:00;6.35;;;2.08;;
22849;SDS011;11591;44.792;10.358;2023-04-25T12:00:27;3.78;;;1.80;;
22849;SDS011;11591;44.792;10.358;2023-04-25T12:02:53;5.43;;;1.77;;
22849;SDS011;11591;44.792;10.358;2023-04-25T12:05:23;2.83;;;1.55;;
22849;SDS011;11591;44.792;10.358;2023-04-25T12:07:50;2.33;;;1.48;;
22849;SDS011;11591;44.792;10.358;2023-04-25T12:10:16;3.05;;;1.60;;
22849;SDS011;11591;44.792;10.358;2023-04-25T12:12:44;2.47;;;1.40;;
22849;SDS011;11591;44.792;10.358;2023-04-25T12:15:12;2.53;;;1.40;;
22849;SDS011;11591;44.792;10.358;2023-04-25T12:17:47;3.60;;;1.20;;
22849;SDS011;11591;44.792;10.358;2023-04-25T12:20:17;3.10;;;1.38;;
22849;SDS011;11591;44.792;10.358;2023-04-25T12:22:52;3.58;;;1.48;;
22849;SDS011;11591;44.792;10.358;2023-04-25T12:33:34;3.30;;;1.50;;
22849;SDS011;11591;44.792;10.358;2023-04-25T12:36:01;2.22;;;1.13;;
22849;SDS011;11591;44.792;10.358;2023-04-25T12:38:37;4.95;;;3.03;;
22849;SDS011;11591;44.792;10.358;2023-04-25T12:41:04;5.43;;;1.38;;
22849;SDS011;11591;44.792;10.358;2023-04-25T12:43:30;6.22;;;3.55;;
22849;SDS011;11591;44.792;10.358;2023-04-25T12:45:56;5.82;;;3.15;;
22849;SDS011;11591;44.792;10.358;2023-04-25T12:48:22;4.63;;;2.60;;
22849;SDS011;11591;44.792;10.358;2023-04-25T12:50:49;3.70;;;1.70;;
22849;SDS011;11591;44.792;10.358;2023-04-25T12:53:16;2.38;;;1.60;;
22849;SDS011;11591;44.792;10.358;2023-04-25T12:55:44;4.63;;;1.42;;
22849;SDS011;11591;44.792;10.358;2023-04-25T12:58:16;3.20;;;1.73;;
22849;SDS011;11591;44.792;10.358;2023-04-25T13:00:43;3.13;;;1.25;;
22849;SDS011;11591;44.792;10.358;2023-04-25T13:03:09;1.85;;;1.30;;
22849;SDS011;11591;44.792;10.358;2023-04-25T13:05:36;3.35;;;1.63;;
22849;SDS011;11591;44.792;10.358;2023-04-25T13:08:03;2.85;;;1.27;;
22849;SDS011;11591;44.792;10.358;2023-04-25T13:10:29;3.05;;;1.20;;
22849;SDS011;11591;44.792;10.358;2023-04-25T13:12:55;4.03;;;1.30;;
22849;SDS011;11591;44.792;10.358;2023-04-25T13:15:22;3.55;;;1.38;;
22849;SDS011;11591;44.792;10.358;2023-04-25T13:17:50;2.38;;;1.40;;
22849;SDS011;11591;44.792;10.358;2023-04-25T13:20:16;5.95;;;1.50;;
22849;SDS011;11591;44.792;10.358;2023-04-25T13:22:43;3.63;;;1.50;;
22849;SDS011;11591;44.792;10.358;2023-04-25T13:25:10;2.65;;;1.27;;
22849;SDS011;11591;44.792;10.358;2023-04-25T13:27:36;6.32;;;1.42;;
22849;SDS011;11591;44.792;10.358;2023-04-25T13:30:03;2.72;;;1.40;;
22849;SDS011;11591;44.792;10.358;2023-04-25T13:32:33;3.75;;;1.77;;
22849;SDS011;11591;44.792;10.358;2023-04-25T13:35:01;3.70;;;1.50;;
22849;SDS011;11591;44.792;10.358;2023-04-25T13:37:28;3.30;;;1.30;;
22849;SDS011;11591;44.792;10.358;2023-04-25T13:39:55;2.75;;;1.58;;
22849;SDS011;11591;44.792;10.358;2023-04-25T13:42:21;3.60;;;1.40;;
22849;SDS011;11591;44.792;10.358;2023-04-25T13:44:48;3.17;;;1.10;;
22849;SDS011;11591;44.792;10.358;2023-04-25T13:47:14;5.28;;;1.10;;
22849;SDS011;11591;44.792;10.358;2023-04-25T13:49:39;5.40;;;2.38;;
22849;SDS011;11591;44.792;10.358;2023-04-25T13:52:08;4.13;;;1.92;;
22849;SDS011;11591;44.792;10.358;2023-04-25T13:54:33;2.60;;;1.05;;
22849;SDS011;11591;44.792;10.358;2023-04-25T13:56:59;8.40;;;1.50;;
22849;SDS011;11591;44.792;10.358;2023-04-25T13:59:26;4.10;;;1.80;;
22849;SDS011;11591;44.792;10.358;2023-04-25T14:01:52;3.75;;;2.70;;
22849;SDS011;11591;44.792;10.358;2023-04-25T14:04:18;5.72;;;3.30;;
22849;SDS011;11591;44.792;10.358;2023-04-25T14:06:44;7.82;;;5.20;;
22849;SDS011;11591;44.792;10.358;2023-04-25T14:09:10;5.82;;;1.85;;
22849;SDS011;11591;44.792;10.358;2023-04-25T14:11:37;2.30;;;1.27;;
22849;SDS011;11591;44.792;10.358;2023-04-25T14:14:03;5.30;;;1.20;;
22849;SDS011;11591;44.792;10.358;2023-04-25T14:16:29;3.60;;;1.20;;
22849;SDS011;11591;44.792;10.358;2023-04-25T14:18:59;1.70;;;0.95;;
22849;SDS011;11591;44.792;10.358;2023-04-25T14:21:28;3.15;;;1.00;;
22849;SDS011;11591;44.792;10.358;2023-04-25T14:23:57;1.67;;;1.35;;
22849;SDS011;11591;44.792;10.358;2023-04-25T14:26:25;1.73;;;1.02;;
22849;SDS011;11591;44.792;10.358;2023-04-25T14:28:51;6.95;;;2.20;;
22849;SDS011;11591;44.792;10.358;2023-04-25T14:31:17;1.95;;;1.02;;
22849;SDS011;11591;44.792;10.358;2023-04-25T14:33:43;1.75;;;1.08;;
22849;SDS011;11591;44.792;10.358;2023-04-25T14:36:11;2.00;;;0.80;;
22849;SDS011;11591;44.792;10.358;2023-04-25T14:38:37;3.08;;;1.05;;
22849;SDS011;11591;44.792;10.358;2023-04-25T14:41:03;2.63;;;1.20;;
22849;SDS011;11591;44.792;10.358;2023-04-25T14:43:29;3.63;;;0.82;;
22849;SDS011;11591;44.792;10.358;2023-04-25T14:45:54;3.25;;;1.00;;
22849;SDS011;11591;44.792;10.358;2023-04-25T14:48:20;1.58;;;1.00;;
22849;SDS011;11591;44.792;10.358;2023-04-25T14:50:46;2.13;;;1.00;;
22849;SDS011;11591;44.792;10.358;2023-04-25T14:53:12;2.40;;;0.93;;
22849;SDS011;11591;44.792;10.358;2023-04-25T14:55:38;4.85;;;1.00;;
22849;SDS011;11591;44.792;10.358;2023-04-25T14:58:04;3.47;;;1.42;;
22849;SDS011;11591;44.792;10.358;2023-04-25T15:00:30;1.30;;;1.20;;
22849;SDS011;11591;44.792;10.358;2023-04-25T15:02:56;8.52;;;0.95;;
22849;SDS011;11591;44.792;10.358;2023-04-25T15:05:23;2.30;;;1.00;;
22849;SDS011;11591;44.792;10.358;2023-04-25T15:07:49;1.30;;;0.88;;
22849;SDS011;11591;44.792;10.358;2023-04-25T15:10:16;2.15;;;1.05;;